Terminal Aerodrome Forecast
Issued by NWS Bismarck, ND

Home | Current Version | Previous Version | Graphics & Text | Print | Product List | Glossary On
Versions: 1 2 3 4 5 6 7 8 9 10 11 12 13 14 15 16 17 18 19 20
756
FTUS43 KBIS 111738
TAFBIS
TAF
KBIS 111738Z 1118/1218 VRB03KT 3SM -SN OVC035
      TEMPO 1118/1122 2SM -SN BR OVC020
     FM112200 01007KT P6SM -SHSN OVC025
     FM120000 01007KT P6SM OVC040
     FM121400 02008KT P6SM SCT060=

USA.gov is the U.S. government's official web portal to all federal, state and local government web resources and services.